West Panama City Beach, Florida
Current Conditions -  °F | °C
As of 9:53 AM on Friday 24 Oct 2014 (Local Time) from KECP Reporting Station
Clear Clear  
Wind Chill: 69°   Ceiling: Unl
Heat Index: 69°   Visibility: 10mi
Dew Point: 50°   Wind: 6mph
Humidity: 51%   Direction: 340°NNW
Pressure: 30.07"   Gusts: NA
Location:  30.3525°N, 85.9093°W
Report Text: KECP 241453Z 34005KT 10SM CLR 21/10 A3007 RMK AO2 SLP193 T02060100 51009
Loading
Personal Weather Stations






























Interactive Weather Map
Tropical Storm Tracking
New forecast layout! Learn more

10-Day Weather Forecast

Advertisements
Track Severe Weather on mobile